sensor_id;sensor_type;location;lat;lon;timestamp;P1;durP1;ratioP1;P2;durP2;ratioP2
49488;SDS011;35382;51.484;11.476;2023-05-28T00:00:36;6.15;;;2.97;;
49488;SDS011;35382;51.484;11.476;2023-05-28T00:02:17;8.02;;;3.17;;
49488;SDS011;35382;51.484;11.476;2023-05-28T00:03:58;7.20;;;3.45;;
49488;SDS011;35382;51.484;11.476;2023-05-28T00:05:41;6.85;;;3.10;;
49488;SDS011;35382;51.484;11.476;2023-05-28T00:07:22;7.57;;;3.55;;
49488;SDS011;35382;51.484;11.476;2023-05-28T00:09:04;8.27;;;3.20;;
49488;SDS011;35382;51.484;11.476;2023-05-28T00:10:45;7.70;;;3.42;;
49488;SDS011;35382;51.484;11.476;2023-05-28T00:12:26;9.25;;;3.10;;
49488;SDS011;35382;51.484;11.476;2023-05-28T00:14:07;8.60;;;3.17;;
49488;SDS011;35382;51.484;11.476;2023-05-28T00:15:48;6.50;;;2.83;;
49488;SDS011;35382;51.484;11.476;2023-05-28T00:17:29;5.72;;;3.17;;
49488;SDS011;35382;51.484;11.476;2023-05-28T00:19:10;7.43;;;3.10;;
49488;SDS011;35382;51.484;11.476;2023-05-28T00:20:52;7.60;;;3.08;;
49488;SDS011;35382;51.484;11.476;2023-05-28T00:22:33;6.90;;;3.00;;
49488;SDS011;35382;51.484;11.476;2023-05-28T00:24:13;7.00;;;3.30;;
49488;SDS011;35382;51.484;11.476;2023-05-28T00:25:55;5.63;;;3.00;;
49488;SDS011;35382;51.484;11.476;2023-05-28T00:27:35;13.05;;;3.63;;
49488;SDS011;35382;51.484;11.476;2023-05-28T00:29:16;7.78;;;3.35;;
49488;SDS011;35382;51.484;11.476;2023-05-28T00:30:57;8.07;;;3.05;;
49488;SDS011;35382;51.484;11.476;2023-05-28T00:32:38;8.40;;;3.00;;
49488;SDS011;35382;51.484;11.476;2023-05-28T00:34:19;5.57;;;2.88;;
49488;SDS011;35382;51.484;11.476;2023-05-28T00:36:00;6.00;;;2.80;;
49488;SDS011;35382;51.484;11.476;2023-05-28T00:37:41;10.55;;;3.28;;
49488;SDS011;35382;51.484;11.476;2023-05-28T00:39:22;6.45;;;2.83;;
49488;SDS011;35382;51.484;11.476;2023-05-28T00:41:03;6.70;;;3.10;;
49488;SDS011;35382;51.484;11.476;2023-05-28T00:42:44;6.07;;;3.20;;
49488;SDS011;35382;51.484;11.476;2023-05-28T00:44:26;6.57;;;2.90;;
49488;SDS011;35382;51.484;11.476;2023-05-28T00:46:07;5.88;;;2.80;;
49488;SDS011;35382;51.484;11.476;2023-05-28T00:47:48;8.40;;;3.35;;
49488;SDS011;35382;51.484;11.476;2023-05-28T00:49:29;6.93;;;3.28;;
49488;SDS011;35382;51.484;11.476;2023-05-28T00:51:12;7.03;;;3.03;;
49488;SDS011;35382;51.484;11.476;2023-05-28T00:52:53;6.00;;;2.63;;
49488;SDS011;35382;51.484;11.476;2023-05-28T00:54:36;6.93;;;2.95;;
49488;SDS011;35382;51.484;11.476;2023-05-28T00:56:17;7.10;;;3.40;;
49488;SDS011;35382;51.484;11.476;2023-05-28T00:57:58;8.10;;;3.67;;
49488;SDS011;35382;51.484;11.476;2023-05-28T00:59:45;10.48;;;4.20;;
49488;SDS011;35382;51.484;11.476;2023-05-28T01:01:27;7.15;;;3.17;;
49488;SDS011;35382;51.484;11.476;2023-05-28T01:03:08;6.65;;;3.35;;
49488;SDS011;35382;51.484;11.476;2023-05-28T01:04:49;7.25;;;3.08;;
49488;SDS011;35382;51.484;11.476;2023-05-28T01:06:31;7.22;;;3.20;;
49488;SDS011;35382;51.484;11.476;2023-05-28T01:08:12;6.07;;;3.15;;
49488;SDS011;35382;51.484;11.476;2023-05-28T01:09:53;6.68;;;3.20;;
49488;SDS011;35382;51.484;11.476;2023-05-28T01:11:34;8.65;;;3.38;;
49488;SDS011;35382;51.484;11.476;2023-05-28T01:13:17;7.32;;;3.60;;
49488;SDS011;35382;51.484;11.476;2023-05-28T01:14:58;7.82;;;3.30;;
49488;SDS011;35382;51.484;11.476;2023-05-28T01:16:39;6.45;;;3.22;;
49488;SDS011;35382;51.484;11.476;2023-05-28T01:18:21;6.70;;;3.58;;
49488;SDS011;35382;51.484;11.476;2023-05-28T01:20:02;8.05;;;3.72;;
49488;SDS011;35382;51.484;11.476;2023-05-28T01:21:46;6.97;;;3.67;;
49488;SDS011;35382;51.484;11.476;2023-05-28T01:23:44;6.18;;;3.20;;
49488;SDS011;35382;51.484;11.476;2023-05-28T01:25:26;8.73;;;3.72;;
49488;SDS011;35382;51.484;11.476;2023-05-28T01:27:07;8.55;;;4.22;;
49488;SDS011;35382;51.484;11.476;2023-05-28T01:28:48;9.80;;;4.00;;
49488;SDS011;35382;51.484;11.476;2023-05-28T01:30:30;7.15;;;3.55;;
49488;SDS011;35382;51.484;11.476;2023-05-28T01:32:13;7.75;;;4.03;;
49488;SDS011;35382;51.484;11.476;2023-05-28T01:33:54;10.23;;;4.28;;
49488;SDS011;35382;51.484;11.476;2023-05-28T01:35:35;8.82;;;3.80;;
49488;SDS011;35382;51.484;11.476;2023-05-28T01:37:16;9.40;;;3.70;;
49488;SDS011;35382;51.484;11.476;2023-05-28T01:38:58;6.60;;;3.67;;
49488;SDS011;35382;51.484;11.476;2023-05-28T01:40:43;8.70;;;3.65;;
49488;SDS011;35382;51.484;11.476;2023-05-28T01:42:25;7.43;;;3.78;;
49488;SDS011;35382;51.484;11.476;2023-05-28T01:44:07;6.80;;;3.70;;
49488;SDS011;35382;51.484;11.476;2023-05-28T01:45:48;7.38;;;3.20;;
49488;SDS011;35382;51.484;11.476;2023-05-28T01:47:30;7.15;;;3.55;;
49488;SDS011;35382;51.484;11.476;2023-05-28T01:49:12;7.60;;;3.40;;
49488;SDS011;35382;51.484;11.476;2023-05-28T01:50:55;10.07;;;3.78;;
49488;SDS011;35382;51.484;11.476;2023-05-28T01:52:36;7.13;;;3.88;;
49488;SDS011;35382;51.484;11.476;2023-05-28T01:54:17;7.57;;;3.92;;
49488;SDS011;35382;51.484;11.476;2023-05-28T01:55:58;7.88;;;3.92;;
49488;SDS011;35382;51.484;11.476;2023-05-28T01:57:40;8.73;;;4.25;;
49488;SDS011;35382;51.484;11.476;2023-05-28T01:59:21;7.55;;;3.55;;
49488;SDS011;35382;51.484;11.476;2023-05-28T02:01:13;7.22;;;4.05;;
49488;SDS011;35382;51.484;11.476;2023-05-28T02:02:58;8.90;;;4.22;;
49488;SDS011;35382;51.484;11.476;2023-05-28T02:04:39;7.78;;;3.60;;
49488;SDS011;35382;51.484;11.476;2023-05-28T02:06:20;7.82;;;3.78;;
49488;SDS011;35382;51.484;11.476;2023-05-28T02:08:01;10.20;;;4.28;;
49488;SDS011;35382;51.484;11.476;2023-05-28T02:09:43;7.68;;;3.88;;
49488;SDS011;35382;51.484;11.476;2023-05-28T02:11:24;8.77;;;4.65;;
49488;SDS011;35382;51.484;11.476;2023-05-28T02:13:08;7.80;;;4.00;;
49488;SDS011;35382;51.484;11.476;2023-05-28T02:14:49;8.77;;;4.18;;
49488;SDS011;35382;51.484;11.476;2023-05-28T02:16:30;7.82;;;4.20;;
49488;SDS011;35382;51.484;11.476;2023-05-28T02:18:11;10.43;;;4.05;;
49488;SDS011;35382;51.484;11.476;2023-05-28T02:19:52;9.13;;;4.47;;
49488;SDS011;35382;51.484;11.476;2023-05-28T02:21:33;8.02;;;4.38;;
49488;SDS011;35382;51.484;11.476;2023-05-28T02:23:16;8.90;;;4.50;;
49488;SDS011;35382;51.484;11.476;2023-05-28T02:24:57;8.02;;;4.00;;
49488;SDS011;35382;51.484;11.476;2023-05-28T02:26:38;12.82;;;4.45;;
49488;SDS011;35382;51.484;11.476;2023-05-28T02:28:19;8.48;;;4.78;;
49488;SDS011;35382;51.484;11.476;2023-05-28T02:30:00;8.45;;;4.10;;
49488;SDS011;35382;51.484;11.476;2023-05-28T02:31:41;10.68;;;5.07;;
49488;SDS011;35382;51.484;11.476;2023-05-28T02:33:22;8.75;;;4.45;;
49488;SDS011;35382;51.484;11.476;2023-05-28T02:35:03;8.75;;;4.50;;
49488;SDS011;35382;51.484;11.476;2023-05-28T02:36:44;9.57;;;4.78;;
49488;SDS011;35382;51.484;11.476;2023-05-28T02:38:25;9.00;;;4.88;;
49488;SDS011;35382;51.484;11.476;2023-05-28T02:40:07;8.98;;;4.72;;
49488;SDS011;35382;51.484;11.476;2023-05-28T02:41:50;8.13;;;4.50;;
49488;SDS011;35382;51.484;11.476;2023-05-28T02:43:31;10.00;;;5.00;;
49488;SDS011;35382;51.484;11.476;2023-05-28T02:45:13;10.85;;;4.80;;
49488;SDS011;35382;51.484;11.476;2023-05-28T02:46:54;10.68;;;4.95;;
49488;SDS011;35382;51.484;11.476;2023-05-28T02:48:35;9.10;;;4.80;;
49488;SDS011;35382;51.484;11.476;2023-05-28T02:50:17;9.30;;;4.75;;
49488;SDS011;35382;51.484;11.476;2023-05-28T02:52:12;10.70;;;5.05;;
49488;SDS011;35382;51.484;11.476;2023-05-28T02:53:57;9.30;;;4.57;;
49488;SDS011;35382;51.484;11.476;2023-05-28T02:55:38;8.30;;;4.50;;
49488;SDS011;35382;51.484;11.476;2023-05-28T02:57:19;9.48;;;4.78;;
49488;SDS011;35382;51.484;11.476;2023-05-28T02:59:00;8.93;;;5.00;;
49488;SDS011;35382;51.484;11.476;2023-05-28T03:00:41;11.55;;;5.25;;
49488;SDS011;35382;51.484;11.476;2023-05-28T03:02:23;10.88;;;5.00;;
49488;SDS011;35382;51.484;11.476;2023-05-28T03:04:04;11.45;;;5.70;;
49488;SDS011;35382;51.484;11.476;2023-05-28T03:05:47;11.27;;;5.20;;
49488;SDS011;35382;51.484;11.476;2023-05-28T03:07:29;9.27;;;5.22;;
49488;SDS011;35382;51.484;11.476;2023-05-28T03:09:10;9.00;;;5.43;;
49488;SDS011;35382;51.484;11.476;2023-05-28T03:10:52;7.60;;;4.50;;
49488;SDS011;35382;51.484;11.476;2023-05-28T03:12:33;10.70;;;5.38;;
49488;SDS011;35382;51.484;11.476;2023-05-28T03:14:13;11.77;;;5.85;;
49488;SDS011;35382;51.484;11.476;2023-05-28T03:15:55;13.63;;;5.72;;
49488;SDS011;35382;51.484;11.476;2023-05-28T03:17:36;11.05;;;4.93;;
49488;SDS011;35382;51.484;11.476;2023-05-28T03:19:17;11.23;;;5.47;;
49488;SDS011;35382;51.484;11.476;2023-05-28T03:20:59;10.75;;;5.10;;
49488;SDS011;35382;51.484;11.476;2023-05-28T03:22:41;12.25;;;5.53;;
49488;SDS011;35382;51.484;11.476;2023-05-28T03:24:23;11.02;;;5.90;;
49488;SDS011;35382;51.484;11.476;2023-05-28T03:26:07;10.00;;;5.18;;
49488;SDS011;35382;51.484;11.476;2023-05-28T03:27:48;13.10;;;6.10;;
49488;SDS011;35382;51.484;11.476;2023-05-28T03:29:29;12.77;;;5.95;;
49488;SDS011;35382;51.484;11.476;2023-05-28T03:31:46;12.75;;;6.10;;
49488;SDS011;35382;51.484;11.476;2023-05-28T03:33:31;12.77;;;6.20;;
49488;SDS011;35382;51.484;11.476;2023-05-28T03:35:12;12.05;;;6.25;;
49488;SDS011;35382;51.484;11.476;2023-05-28T03:36:53;12.07;;;6.32;;
49488;SDS011;35382;51.484;11.476;2023-05-28T03:38:34;12.10;;;6.30;;
49488;SDS011;35382;51.484;11.476;2023-05-28T03:40:15;12.52;;;6.85;;
49488;SDS011;35382;51.484;11.476;2023-05-28T03:41:56;11.82;;;6.40;;
49488;SDS011;35382;51.484;11.476;2023-05-28T03:43:40;11.43;;;6.07;;
49488;SDS011;35382;51.484;11.476;2023-05-28T03:45:22;13.48;;;6.40;;
49488;SDS011;35382;51.484;11.476;2023-05-28T03:47:03;11.70;;;6.57;;
49488;SDS011;35382;51.484;11.476;2023-05-28T03:48:44;10.35;;;5.85;;
49488;SDS011;35382;51.484;11.476;2023-05-28T03:50:27;11.38;;;6.38;;
49488;SDS011;35382;51.484;11.476;2023-05-28T03:52:08;11.63;;;6.78;;
49488;SDS011;35382;51.484;11.476;2023-05-28T03:53:59;11.55;;;6.55;;
49488;SDS011;35382;51.484;11.476;2023-05-28T03:55:42;14.32;;;7.70;;
49488;SDS011;35382;51.484;11.476;2023-05-28T03:57:24;16.80;;;8.13;;
49488;SDS011;35382;51.484;11.476;2023-05-28T03:59:05;14.18;;;7.85;;
49488;SDS011;35382;51.484;11.476;2023-05-28T04:00:47;10.65;;;6.10;;
49488;SDS011;35382;51.484;11.476;2023-05-28T04:02:28;12.35;;;6.57;;
49488;SDS011;35382;51.484;11.476;2023-05-28T04:04:08;12.30;;;7.13;;
49488;SDS011;35382;51.484;11.476;2023-05-28T04:05:49;11.93;;;6.35;;
49488;SDS011;35382;51.484;11.476;2023-05-28T04:07:30;11.48;;;6.43;;
49488;SDS011;35382;51.484;11.476;2023-05-28T04:09:12;12.77;;;6.35;;
49488;SDS011;35382;51.484;11.476;2023-05-28T04:10:53;10.27;;;6.38;;
49488;SDS011;35382;51.484;11.476;2023-05-28T04:12:34;10.48;;;6.07;;
49488;SDS011;35382;51.484;11.476;2023-05-28T04:14:15;12.30;;;5.72;;
49488;SDS011;35382;51.484;11.476;2023-05-28T04:15:56;9.82;;;5.95;;
49488;SDS011;35382;51.484;11.476;2023-05-28T04:17:38;12.82;;;6.03;;
49488;SDS011;35382;51.484;11.476;2023-05-28T04:19:19;11.32;;;6.22;;
49488;SDS011;35382;51.484;11.476;2023-05-28T04:21:02;10.32;;;5.57;;
49488;SDS011;35382;51.484;11.476;2023-05-28T04:22:43;10.95;;;5.80;;
49488;SDS011;35382;51.484;11.476;2023-05-28T04:24:24;9.20;;;5.47;;
49488;SDS011;35382;51.484;11.476;2023-05-28T04:26:05;13.63;;;6.00;;
49488;SDS011;35382;51.484;11.476;2023-05-28T04:27:50;9.38;;;5.57;;
49488;SDS011;35382;51.484;11.476;2023-05-28T04:29:33;11.85;;;5.82;;
49488;SDS011;35382;51.484;11.476;2023-05-28T04:31:14;10.07;;;5.22;;
49488;SDS011;35382;51.484;11.476;2023-05-28T04:32:55;10.32;;;5.78;;
49488;SDS011;35382;51.484;11.476;2023-05-28T04:34:37;10.45;;;5.60;;
49488;SDS011;35382;51.484;11.476;2023-05-28T04:36:22;9.82;;;5.50;;
49488;SDS011;35382;51.484;11.476;2023-05-28T04:38:09;8.95;;;4.95;;
49488;SDS011;35382;51.484;11.476;2023-05-28T04:39:50;10.52;;;5.45;;
49488;SDS011;35382;51.484;11.476;2023-05-28T04:41:31;9.75;;;5.50;;
49488;SDS011;35382;51.484;11.476;2023-05-28T04:43:12;10.02;;;5.65;;
49488;SDS011;35382;51.484;11.476;2023-05-28T04:44:56;8.50;;;5.15;;
49488;SDS011;35382;51.484;11.476;2023-05-28T04:46:39;9.20;;;5.05;;
49488;SDS011;35382;51.484;11.476;2023-05-28T04:48:20;9.43;;;5.28;;
49488;SDS011;35382;51.484;11.476;2023-05-28T04:50:01;8.23;;;4.90;;
49488;SDS011;35382;51.484;11.476;2023-05-28T04:51:44;8.35;;;4.70;;
49488;SDS011;35382;51.484;11.476;2023-05-28T04:53:25;9.30;;;5.07;;
49488;SDS011;35382;51.484;11.476;2023-05-28T04:55:06;7.05;;;4.25;;
49488;SDS011;35382;51.484;11.476;2023-05-28T04:56:48;8.43;;;5.10;;
49488;SDS011;35382;51.484;11.476;2023-05-28T04:58:29;9.07;;;4.80;;
49488;SDS011;35382;51.484;11.476;2023-05-28T05:00:12;8.57;;;4.43;;
49488;SDS011;35382;51.484;11.476;2023-05-28T05:01:54;9.43;;;4.88;;
49488;SDS011;35382;51.484;11.476;2023-05-28T05:03:35;7.15;;;4.53;;
49488;SDS011;35382;51.484;11.476;2023-05-28T05:05:18;10.50;;;5.18;;
49488;SDS011;35382;51.484;11.476;2023-05-28T05:07:00;8.25;;;4.82;;
49488;SDS011;35382;51.484;11.476;2023-05-28T05:08:41;13.40;;;5.00;;
49488;SDS011;35382;51.484;11.476;2023-05-28T05:10:23;21.88;;;5.38;;
49488;SDS011;35382;51.484;11.476;2023-05-28T05:12:05;10.65;;;5.15;;
49488;SDS011;35382;51.484;11.476;2023-05-28T05:13:47;7.13;;;4.47;;
49488;SDS011;35382;51.484;11.476;2023-05-28T05:15:28;9.23;;;4.90;;
49488;SDS011;35382;51.484;11.476;2023-05-28T05:17:10;9.25;;;5.20;;
49488;SDS011;35382;51.484;11.476;2023-05-28T05:18:51;10.10;;;5.72;;
49488;SDS011;35382;51.484;11.476;2023-05-28T05:20:32;7.78;;;4.53;;
49488;SDS011;35382;51.484;11.476;2023-05-28T05:22:13;8.00;;;5.13;;
49488;SDS011;35382;51.484;11.476;2023-05-28T05:23:56;9.82;;;5.15;;
49488;SDS011;35382;51.484;11.476;2023-05-28T05:25:41;8.48;;;5.03;;
49488;SDS011;35382;51.484;11.476;2023-05-28T05:27:24;9.10;;;4.82;;
49488;SDS011;35382;51.484;11.476;2023-05-28T05:29:04;8.65;;;5.00;;
49488;SDS011;35382;51.484;11.476;2023-05-28T05:30:46;8.63;;;4.35;;
49488;SDS011;35382;51.484;11.476;2023-05-28T05:32:27;9.82;;;4.80;;
49488;SDS011;35382;51.484;11.476;2023-05-28T05:34:07;9.68;;;5.35;;
49488;SDS011;35382;51.484;11.476;2023-05-28T05:36:09;9.70;;;5.63;;
49488;SDS011;35382;51.484;11.476;2023-05-28T05:38:09;9.55;;;5.78;;
49488;SDS011;35382;51.484;11.476;2023-05-28T05:40:18;10.02;;;5.25;;
49488;SDS011;35382;51.484;11.476;2023-05-28T05:42:19;8.68;;;5.32;;
49488;SDS011;35382;51.484;11.476;2023-05-28T05:44:04;8.73;;;5.45;;
49488;SDS011;35382;51.484;11.476;2023-05-28T05:45:45;10.00;;;5.47;;
49488;SDS011;35382;51.484;11.476;2023-05-28T05:47:27;10.13;;;5.60;;
49488;SDS011;35382;51.484;11.476;2023-05-28T05:49:09;8.55;;;5.57;;
49488;SDS011;35382;51.484;11.476;2023-05-28T05:50:51;9.98;;;6.07;;
49488;SDS011;35382;51.484;11.476;2023-05-28T05:52:36;8.43;;;5.13;;
49488;SDS011;35382;51.484;11.476;2023-05-28T05:54:19;9.57;;;5.32;;
49488;SDS011;35382;51.484;11.476;2023-05-28T05:56:00;9.07;;;5.20;;
49488;SDS011;35382;51.484;11.476;2023-05-28T05:57:41;9.30;;;5.32;;
49488;SDS011;35382;51.484;11.476;2023-05-28T05:59:22;10.13;;;5.22;;
49488;SDS011;35382;51.484;11.476;2023-05-28T06:01:03;9.90;;;4.88;;
49488;SDS011;35382;51.484;11.476;2023-05-28T06:02:45;9.63;;;5.00;;
49488;SDS011;35382;51.484;11.476;2023-05-28T06:04:45;9.20;;;5.20;;
49488;SDS011;35382;51.484;11.476;2023-05-28T06:06:48;8.02;;;4.95;;
49488;SDS011;35382;51.484;11.476;2023-05-28T06:08:48;9.35;;;5.45;;
49488;SDS011;35382;51.484;11.476;2023-05-28T06:10:48;10.82;;;4.95;;
49488;SDS011;35382;51.484;11.476;2023-05-28T06:12:30;10.25;;;5.63;;
49488;SDS011;35382;51.484;11.476;2023-05-28T06:14:12;8.85;;;5.15;;
49488;SDS011;35382;51.484;11.476;2023-05-28T06:15:53;9.60;;;5.55;;
49488;SDS011;35382;51.484;11.476;2023-05-28T06:17:34;11.63;;;5.45;;
49488;SDS011;35382;51.484;11.476;2023-05-28T06:19:16;8.50;;;5.13;;
49488;SDS011;35382;51.484;11.476;2023-05-28T06:20:57;10.88;;;5.85;;
49488;SDS011;35382;51.484;11.476;2023-05-28T06:22:38;9.75;;;5.68;;
49488;SDS011;35382;51.484;11.476;2023-05-28T06:24:20;8.88;;;5.30;;
49488;SDS011;35382;51.484;11.476;2023-05-28T06:26:03;8.90;;;5.32;;
49488;SDS011;35382;51.484;11.476;2023-05-28T06:27:46;12.30;;;5.75;;
49488;SDS011;35382;51.484;11.476;2023-05-28T06:29:27;8.43;;;5.93;;
49488;SDS011;35382;51.484;11.476;2023-05-28T06:31:08;9.35;;;5.10;;
49488;SDS011;35382;51.484;11.476;2023-05-28T06:32:49;8.77;;;6.03;;
49488;SDS011;35382;51.484;11.476;2023-05-28T06:34:30;8.43;;;5.95;;
49488;SDS011;35382;51.484;11.476;2023-05-28T06:36:11;10.65;;;5.75;;
49488;SDS011;35382;51.484;11.476;2023-05-28T06:37:54;9.38;;;5.80;;
49488;SDS011;35382;51.484;11.476;2023-05-28T06:39:35;9.45;;;5.53;;
49488;SDS011;35382;51.484;11.476;2023-05-28T06:41:18;9.13;;;5.68;;
49488;SDS011;35382;51.484;11.476;2023-05-28T06:43:02;9.02;;;5.47;;
49488;SDS011;35382;51.484;11.476;2023-05-28T06:44:48;8.77;;;5.40;;
49488;SDS011;35382;51.484;11.476;2023-05-28T06:46:30;10.10;;;5.50;;
49488;SDS011;35382;51.484;11.476;2023-05-28T06:48:11;9.10;;;5.22;;
49488;SDS011;35382;51.484;11.476;2023-05-28T06:49:52;9.68;;;6.05;;
49488;SDS011;35382;51.484;11.476;2023-05-28T06:51:34;9.13;;;5.43;;
49488;SDS011;35382;51.484;11.476;2023-05-28T06:53:18;9.68;;;5.18;;
49488;SDS011;35382;51.484;11.476;2023-05-28T06:54:59;8.57;;;5.60;;
49488;SDS011;35382;51.484;11.476;2023-05-28T06:56:42;8.25;;;4.85;;
49488;SDS011;35382;51.484;11.476;2023-05-28T06:58:42;7.95;;;4.28;;
49488;SDS011;35382;51.484;11.476;2023-05-28T07:00:36;10.98;;;5.53;;
49488;SDS011;35382;51.484;11.476;2023-05-28T07:02:39;9.50;;;4.47;;
49488;SDS011;35382;51.484;11.476;2023-05-28T07:04:44;7.72;;;4.45;;
49488;SDS011;35382;51.484;11.476;2023-05-28T07:06:31;10.63;;;4.43;;
49488;SDS011;35382;51.484;11.476;2023-05-28T07:08:13;8.63;;;4.25;;
49488;SDS011;35382;51.484;11.476;2023-05-28T07:09:54;8.18;;;3.50;;
49488;SDS011;35382;51.484;11.476;2023-05-28T07:11:35;8.90;;;4.30;;
49488;SDS011;35382;51.484;11.476;2023-05-28T07:13:16;9.70;;;3.75;;
49488;SDS011;35382;51.484;11.476;2023-05-28T07:14:57;9.75;;;3.83;;
49488;SDS011;35382;51.484;11.476;2023-05-28T07:16:38;9.25;;;4.05;;
49488;SDS011;35382;51.484;11.476;2023-05-28T07:18:20;8.05;;;3.88;;
49488;SDS011;35382;51.484;11.476;2023-05-28T07:20:03;8.07;;;3.67;;
49488;SDS011;35382;51.484;11.476;2023-05-28T07:22:00;11.23;;;4.20;;
49488;SDS011;35382;51.484;11.476;2023-05-28T07:23:41;9.32;;;3.75;;
49488;SDS011;35382;51.484;11.476;2023-05-28T07:25:22;10.63;;;3.63;;
49488;SDS011;35382;51.484;11.476;2023-05-28T07:27:03;12.85;;;4.68;;
49488;SDS011;35382;51.484;11.476;2023-05-28T07:28:47;8.95;;;3.53;;
49488;SDS011;35382;51.484;11.476;2023-05-28T07:30:28;10.50;;;5.00;;
49488;SDS011;35382;51.484;11.476;2023-05-28T07:32:13;13.63;;;6.93;;
49488;SDS011;35382;51.484;11.476;2023-05-28T07:33:57;11.57;;;5.70;;
49488;SDS011;35382;51.484;11.476;2023-05-28T07:35:41;10.95;;;5.13;;
49488;SDS011;35382;51.484;11.476;2023-05-28T07:37:25;11.15;;;5.32;;
49488;SDS011;35382;51.484;11.476;2023-05-28T07:39:06;8.93;;;3.63;;
49488;SDS011;35382;51.484;11.476;2023-05-28T07:40:50;9.75;;;4.22;;
49488;SDS011;35382;51.484;11.476;2023-05-28T07:42:36;8.80;;;3.65;;
49488;SDS011;35382;51.484;11.476;2023-05-28T07:44:20;9.23;;;3.97;;
49488;SDS011;35382;51.484;11.476;2023-05-28T07:46:02;8.05;;;4.05;;
49488;SDS011;35382;51.484;11.476;2023-05-28T07:49:49;11.15;;;4.80;;
49488;SDS011;35382;51.484;11.476;2023-05-28T07:51:34;10.18;;;4.15;;
49488;SDS011;35382;51.484;11.476;2023-05-28T07:53:22;8.07;;;3.67;;
49488;SDS011;35382;51.484;11.476;2023-05-28T07:55:04;7.55;;;4.07;;
49488;SDS011;35382;51.484;11.476;2023-05-28T07:56:45;10.27;;;3.63;;
49488;SDS011;35382;51.484;11.476;2023-05-28T07:58:32;9.07;;;4.10;;
49488;SDS011;35382;51.484;11.476;2023-05-28T08:00:13;8.43;;;4.00;;
49488;SDS011;35382;51.484;11.476;2023-05-28T08:02:16;8.32;;;3.42;;
49488;SDS011;35382;51.484;11.476;2023-05-28T08:03:57;6.95;;;3.30;;
49488;SDS011;35382;51.484;11.476;2023-05-28T08:05:45;5.93;;;3.38;;
49488;SDS011;35382;51.484;11.476;2023-05-28T08:07:27;8.85;;;3.53;;
49488;SDS011;35382;51.484;11.476;2023-05-28T08:09:08;7.55;;;3.45;;
49488;SDS011;35382;51.484;11.476;2023-05-28T08:10:49;7.28;;;3.17;;
49488;SDS011;35382;51.484;11.476;2023-05-28T08:12:31;8.60;;;3.20;;
49488;SDS011;35382;51.484;11.476;2023-05-28T08:14:13;6.85;;;2.90;;
49488;SDS011;35382;51.484;11.476;2023-05-28T08:15:58;7.22;;;3.03;;
49488;SDS011;35382;51.484;11.476;2023-05-28T08:17:41;5.47;;;2.47;;
49488;SDS011;35382;51.484;11.476;2023-05-28T08:19:26;6.10;;;2.67;;
49488;SDS011;35382;51.484;11.476;2023-05-28T08:21:11;5.88;;;2.65;;
49488;SDS011;35382;51.484;11.476;2023-05-28T08:22:52;5.40;;;2.70;;
49488;SDS011;35382;51.484;11.476;2023-05-28T08:24:33;7.55;;;2.58;;
49488;SDS011;35382;51.484;11.476;2023-05-28T08:26:15;6.43;;;2.78;;
49488;SDS011;35382;51.484;11.476;2023-05-28T08:27:56;5.65;;;2.58;;
49488;SDS011;35382;51.484;11.476;2023-05-28T08:29:39;7.00;;;3.00;;
49488;SDS011;35382;51.484;11.476;2023-05-28T08:31:20;7.68;;;3.17;;
49488;SDS011;35382;51.484;11.476;2023-05-28T08:33:25;5.30;;;2.33;;
49488;SDS011;35382;51.484;11.476;2023-05-28T08:35:06;5.30;;;2.70;;
49488;SDS011;35382;51.484;11.476;2023-05-28T08:36:47;5.75;;;2.55;;
49488;SDS011;35382;51.484;11.476;2023-05-28T08:38:35;7.38;;;3.00;;
49488;SDS011;35382;51.484;11.476;2023-05-28T08:40:17;5.65;;;2.80;;
49488;SDS011;35382;51.484;11.476;2023-05-28T08:41:58;12.55;;;3.60;;
49488;SDS011;35382;51.484;11.476;2023-05-28T08:43:39;8.25;;;3.63;;
49488;SDS011;35382;51.484;11.476;2023-05-28T08:45:20;6.50;;;3.28;;
49488;SDS011;35382;51.484;11.476;2023-05-28T08:47:04;6.88;;;2.60;;
49488;SDS011;35382;51.484;11.476;2023-05-28T08:48:56;7.03;;;2.65;;
49488;SDS011;35382;51.484;11.476;2023-05-28T08:50:39;6.70;;;2.90;;
49488;SDS011;35382;51.484;11.476;2023-05-28T08:52:39;6.30;;;3.10;;
49488;SDS011;35382;51.484;11.476;2023-05-28T08:54:22;6.15;;;2.47;;
49488;SDS011;35382;51.484;11.476;2023-05-28T08:56:03;5.80;;;3.00;;
49488;SDS011;35382;51.484;11.476;2023-05-28T08:57:47;5.65;;;2.60;;
49488;SDS011;35382;51.484;11.476;2023-05-28T08:59:29;7.40;;;2.63;;
49488;SDS011;35382;51.484;11.476;2023-05-28T09:01:11;6.43;;;2.88;;
49488;SDS011;35382;51.484;11.476;2023-05-28T09:03:15;6.97;;;3.17;;
49488;SDS011;35382;51.484;11.476;2023-05-28T09:04:56;5.97;;;2.70;;
49488;SDS011;35382;51.484;11.476;2023-05-28T09:06:39;10.00;;;3.72;;
49488;SDS011;35382;51.484;11.476;2023-05-28T09:08:26;5.93;;;2.88;;
49488;SDS011;35382;51.484;11.476;2023-05-28T09:10:10;6.70;;;2.67;;
49488;SDS011;35382;51.484;11.476;2023-05-28T09:11:57;7.15;;;2.53;;
49488;SDS011;35382;51.484;11.476;2023-05-28T09:13:46;6.28;;;2.60;;
49488;SDS011;35382;51.484;11.476;2023-05-28T09:15:29;6.18;;;2.75;;
49488;SDS011;35382;51.484;11.476;2023-05-28T09:17:15;6.55;;;2.63;;
49488;SDS011;35382;51.484;11.476;2023-05-28T09:19:04;5.63;;;2.85;;
49488;SDS011;35382;51.484;11.476;2023-05-28T09:20:47;4.93;;;2.60;;
49488;SDS011;35382;51.484;11.476;2023-05-28T09:22:29;6.15;;;2.28;;
49488;SDS011;35382;51.484;11.476;2023-05-28T09:24:19;6.47;;;2.47;;
49488;SDS011;35382;51.484;11.476;2023-05-28T09:28:16;6.50;;;2.50;;
49488;SDS011;35382;51.484;11.476;2023-05-28T09:30:01;7.13;;;2.65;;
49488;SDS011;35382;51.484;11.476;2023-05-28T09:31:54;8.52;;;2.72;;
49488;SDS011;35382;51.484;11.476;2023-05-28T09:33:45;7.00;;;2.70;;
49488;SDS011;35382;51.484;11.476;2023-05-28T09:35:27;6.65;;;2.60;;
49488;SDS011;35382;51.484;11.476;2023-05-28T09:37:10;7.65;;;2.78;;
49488;SDS011;35382;51.484;11.476;2023-05-28T09:38:51;7.90;;;2.58;;
49488;SDS011;35382;51.484;11.476;2023-05-28T09:40:42;5.75;;;2.50;;
49488;SDS011;35382;51.484;11.476;2023-05-28T09:42:24;5.90;;;2.40;;
49488;SDS011;35382;51.484;11.476;2023-05-28T09:44:05;5.63;;;2.53;;
49488;SDS011;35382;51.484;11.476;2023-05-28T09:45:46;6.70;;;2.70;;
49488;SDS011;35382;51.484;11.476;2023-05-28T09:47:27;5.40;;;2.50;;
49488;SDS011;35382;51.484;11.476;2023-05-28T09:49:08;6.15;;;2.60;;
49488;SDS011;35382;51.484;11.476;2023-05-28T09:50:51;7.00;;;2.90;;
49488;SDS011;35382;51.484;11.476;2023-05-28T09:52:33;6.25;;;2.50;;
49488;SDS011;35382;51.484;11.476;2023-05-28T09:54:15;7.32;;;3.00;;
49488;SDS011;35382;51.484;11.476;2023-05-28T09:55:59;6.43;;;2.60;;
49488;SDS011;35382;51.484;11.476;2023-05-28T09:57:45;7.15;;;3.25;;
49488;SDS011;35382;51.484;11.476;2023-05-28T09:59:30;6.93;;;2.72;;
49488;SDS011;35382;51.484;11.476;2023-05-28T10:01:13;6.63;;;3.53;;
49488;SDS011;35382;51.484;11.476;2023-05-28T10:04:40;7.13;;;2.67;;
49488;SDS011;35382;51.484;11.476;2023-05-28T10:06:24;6.78;;;2.55;;
49488;SDS011;35382;51.484;11.476;2023-05-28T10:08:07;6.70;;;2.42;;
49488;SDS011;35382;51.484;11.476;2023-05-28T10:09:54;6.05;;;2.60;;
49488;SDS011;35382;51.484;11.476;2023-05-28T10:11:38;6.55;;;2.85;;
49488;SDS011;35382;51.484;11.476;2023-05-28T10:13:22;5.88;;;2.40;;
49488;SDS011;35382;51.484;11.476;2023-05-28T10:15:03;6.55;;;2.78;;
49488;SDS011;35382;51.484;11.476;2023-05-28T10:16:46;6.57;;;3.08;;